sensor_id;sensor_type;location;lat;lon;timestamp;temperature;humidity
67890;DHT22;54685;52.082;5.426;2023-07-08T00:01:18;20.30;69.70
67890;DHT22;54685;52.082;5.426;2023-07-08T00:03:46;20.30;68.50
67890;DHT22;54685;52.082;5.426;2023-07-08T00:06:24;20.30;68.20
67890;DHT22;54685;52.082;5.426;2023-07-08T00:08:52;20.30;68.90
67890;DHT22;54685;52.082;5.426;2023-07-08T00:11:19;20.30;68.30
67890;DHT22;54685;52.082;5.426;2023-07-08T00:13:46;20.30;68.20
67890;DHT22;54685;52.082;5.426;2023-07-08T00:16:15;20.30;68.80
67890;DHT22;54685;52.082;5.426;2023-07-08T00:18:43;20.30;69.00
67890;DHT22;54685;52.082;5.426;2023-07-08T00:21:12;20.30;68.80
67890;DHT22;54685;52.082;5.426;2023-07-08T00:23:50;20.30;68.20
67890;DHT22;54685;52.082;5.426;2023-07-08T00:26:25;20.20;68.30
67890;DHT22;54685;52.082;5.426;2023-07-08T00:28:53;20.20;68.30
67890;DHT22;54685;52.082;5.426;2023-07-08T00:31:21;20.20;69.50
67890;DHT22;54685;52.082;5.426;2023-07-08T00:33:52;20.30;69.40
67890;DHT22;54685;52.082;5.426;2023-07-08T00:36:23;20.20;68.90
67890;DHT22;54685;52.082;5.426;2023-07-08T00:38:50;20.20;69.20
67890;DHT22;54685;52.082;5.426;2023-07-08T00:43:53;20.20;69.10
67890;DHT22;54685;52.082;5.426;2023-07-08T00:51:37;20.10;69.90
67890;DHT22;54685;52.082;5.426;2023-07-08T00:54:15;20.00;70.00
67890;DHT22;54685;52.082;5.426;2023-07-08T00:56:51;20.00;70.60
67890;DHT22;54685;52.082;5.426;2023-07-08T00:59:33;19.90;70.70
67890;DHT22;54685;52.082;5.426;2023-07-08T01:02:03;19.80;70.70
67890;DHT22;54685;52.082;5.426;2023-07-08T01:04:37;19.80;71.30
67890;DHT22;54685;52.082;5.426;2023-07-08T01:07:10;19.70;71.60
67890;DHT22;54685;52.082;5.426;2023-07-08T01:09:41;19.80;72.30
67890;DHT22;54685;52.082;5.426;2023-07-08T01:12:20;19.70;72.40
67890;DHT22;54685;52.082;5.426;2023-07-08T01:14:48;19.70;72.20
67890;DHT22;54685;52.082;5.426;2023-07-08T01:17:16;19.70;73.80
67890;DHT22;54685;52.082;5.426;2023-07-08T01:19:44;19.60;73.50
67890;DHT22;54685;52.082;5.426;2023-07-08T01:22:11;19.60;73.80
67890;DHT22;54685;52.082;5.426;2023-07-08T01:24:41;19.60;74.50
67890;DHT22;54685;52.082;5.426;2023-07-08T01:27:12;19.60;74.50
67890;DHT22;54685;52.082;5.426;2023-07-08T01:29:39;19.60;74.50
67890;DHT22;54685;52.082;5.426;2023-07-08T01:32:06;19.50;74.90
67890;DHT22;54685;52.082;5.426;2023-07-08T01:34:34;19.50;75.20
67890;DHT22;54685;52.082;5.426;2023-07-08T01:37:04;19.50;76.80
67890;DHT22;54685;52.082;5.426;2023-07-08T01:39:32;19.50;76.20
67890;DHT22;54685;52.082;5.426;2023-07-08T01:42:00;19.40;76.40
67890;DHT22;54685;52.082;5.426;2023-07-08T01:44:31;19.40;77.10
67890;DHT22;54685;52.082;5.426;2023-07-08T01:47:22;19.40;77.40
67890;DHT22;54685;52.082;5.426;2023-07-08T01:49:47;19.30;77.70
67890;DHT22;54685;52.082;5.426;2023-07-08T01:52:16;19.30;78.40
67890;DHT22;54685;52.082;5.426;2023-07-08T01:54:45;19.30;78.60
67890;DHT22;54685;52.082;5.426;2023-07-08T01:57:20;19.20;79.30
67890;DHT22;54685;52.082;5.426;2023-07-08T01:59:47;19.20;79.80
67890;DHT22;54685;52.082;5.426;2023-07-08T02:02:14;19.10;80.30
67890;DHT22;54685;52.082;5.426;2023-07-08T02:04:41;19.10;81.10
67890;DHT22;54685;52.082;5.426;2023-07-08T02:07:07;19.10;81.70
67890;DHT22;54685;52.082;5.426;2023-07-08T02:09:34;19.00;83.40
67890;DHT22;54685;52.082;5.426;2023-07-08T02:12:01;19.00;82.80
67890;DHT22;54685;52.082;5.426;2023-07-08T02:14:28;19.00;83.10
67890;DHT22;54685;52.082;5.426;2023-07-08T02:16:55;18.90;85.60
67890;DHT22;54685;52.082;5.426;2023-07-08T02:19:22;18.90;85.50
67890;DHT22;54685;52.082;5.426;2023-07-08T02:21:48;18.80;85.60
67890;DHT22;54685;52.082;5.426;2023-07-08T02:24:15;18.80;86.00
67890;DHT22;54685;52.082;5.426;2023-07-08T02:26:43;18.80;86.60
67890;DHT22;54685;52.082;5.426;2023-07-08T02:29:10;18.70;86.60
67890;DHT22;54685;52.082;5.426;2023-07-08T02:31:37;18.60;87.00
67890;DHT22;54685;52.082;5.426;2023-07-08T02:34:04;18.60;87.70
67890;DHT22;54685;52.082;5.426;2023-07-08T02:36:30;18.60;88.00
67890;DHT22;54685;52.082;5.426;2023-07-08T02:38:57;18.60;88.80
67890;DHT22;54685;52.082;5.426;2023-07-08T02:41:24;18.50;89.30
67890;DHT22;54685;52.082;5.426;2023-07-08T02:43:51;18.50;88.90
67890;DHT22;54685;52.082;5.426;2023-07-08T02:46:18;18.40;89.50
67890;DHT22;54685;52.082;5.426;2023-07-08T02:48:45;18.40;90.00
67890;DHT22;54685;52.082;5.426;2023-07-08T02:51:11;18.40;90.10
67890;DHT22;54685;52.082;5.426;2023-07-08T02:53:38;18.40;90.40
67890;DHT22;54685;52.082;5.426;2023-07-08T02:56:05;18.40;90.50
67890;DHT22;54685;52.082;5.426;2023-07-08T02:58:32;18.30;91.00
67890;DHT22;54685;52.082;5.426;2023-07-08T03:01:00;18.30;91.10
67890;DHT22;54685;52.082;5.426;2023-07-08T03:03:28;18.30;91.40
67890;DHT22;54685;52.082;5.426;2023-07-08T03:06:01;18.20;91.70
67890;DHT22;54685;52.082;5.426;2023-07-08T03:08:29;18.10;92.20
67890;DHT22;54685;52.082;5.426;2023-07-08T03:11:04;18.10;92.60
67890;DHT22;54685;52.082;5.426;2023-07-08T03:13:32;18.00;93.50
67890;DHT22;54685;52.082;5.426;2023-07-08T03:16:02;18.00;93.50
67890;DHT22;54685;52.082;5.426;2023-07-08T03:18:35;18.00;93.90
67890;DHT22;54685;52.082;5.426;2023-07-08T03:21:05;17.90;93.90
67890;DHT22;54685;52.082;5.426;2023-07-08T03:23:32;17.90;94.30
67890;DHT22;54685;52.082;5.426;2023-07-08T03:25:59;17.90;94.30
67890;DHT22;54685;52.082;5.426;2023-07-08T03:28:27;17.90;94.40
67890;DHT22;54685;52.082;5.426;2023-07-08T03:30:55;17.80;95.40
67890;DHT22;54685;52.082;5.426;2023-07-08T03:33:22;17.70;96.10
67890;DHT22;54685;52.082;5.426;2023-07-08T03:35:50;17.70;96.30
67890;DHT22;54685;52.082;5.426;2023-07-08T03:38:17;17.70;96.80
67890;DHT22;54685;52.082;5.426;2023-07-08T03:40:44;17.70;96.40
67890;DHT22;54685;52.082;5.426;2023-07-08T03:43:10;17.60;96.30
67890;DHT22;54685;52.082;5.426;2023-07-08T03:45:38;17.60;96.50
67890;DHT22;54685;52.082;5.426;2023-07-08T03:48:10;17.60;96.60
67890;DHT22;54685;52.082;5.426;2023-07-08T03:50:37;17.60;97.10
67890;DHT22;54685;52.082;5.426;2023-07-08T03:53:04;17.60;97.30
67890;DHT22;54685;52.082;5.426;2023-07-08T03:55:31;17.60;97.70
67890;DHT22;54685;52.082;5.426;2023-07-08T03:57:58;17.60;97.80
67890;DHT22;54685;52.082;5.426;2023-07-08T04:00:28;17.50;97.90
67890;DHT22;54685;52.082;5.426;2023-07-08T04:02:57;17.50;98.10
67890;DHT22;54685;52.082;5.426;2023-07-08T04:05:24;17.40;98.20
67890;DHT22;54685;52.082;5.426;2023-07-08T04:07:50;17.40;98.40
67890;DHT22;54685;52.082;5.426;2023-07-08T04:10:17;17.40;99.10
67890;DHT22;54685;52.082;5.426;2023-07-08T04:12:44;17.40;99.70
67890;DHT22;54685;52.082;5.426;2023-07-08T04:15:12;17.40;99.90
67890;DHT22;54685;52.082;5.426;2023-07-08T04:17:45;17.40;99.90
67890;DHT22;54685;52.082;5.426;2023-07-08T04:20:16;17.40;99.90
67890;DHT22;54685;52.082;5.426;2023-07-08T04:22:44;17.40;99.90
67890;DHT22;54685;52.082;5.426;2023-07-08T04:25:12;17.40;99.90
67890;DHT22;54685;52.082;5.426;2023-07-08T04:27:40;17.40;99.90
67890;DHT22;54685;52.082;5.426;2023-07-08T04:30:09;17.40;99.90
67890;DHT22;54685;52.082;5.426;2023-07-08T04:32:41;17.40;99.90
67890;DHT22;54685;52.082;5.426;2023-07-08T04:35:10;17.50;99.90
67890;DHT22;54685;52.082;5.426;2023-07-08T04:37:37;17.50;99.90
67890;DHT22;54685;52.082;5.426;2023-07-08T04:40:04;17.50;99.90
67890;DHT22;54685;52.082;5.426;2023-07-08T04:42:31;17.50;99.90
67890;DHT22;54685;52.082;5.426;2023-07-08T04:44:58;17.60;99.90
67890;DHT22;54685;52.082;5.426;2023-07-08T04:47:25;17.60;99.90
67890;DHT22;54685;52.082;5.426;2023-07-08T04:49:55;17.60;99.90
67890;DHT22;54685;52.082;5.426;2023-07-08T04:52:22;17.60;99.90
67890;DHT22;54685;52.082;5.426;2023-07-08T04:54:49;17.60;99.90
67890;DHT22;54685;52.082;5.426;2023-07-08T04:57:16;17.70;99.90
67890;DHT22;54685;52.082;5.426;2023-07-08T04:59:43;17.70;99.90
67890;DHT22;54685;52.082;5.426;2023-07-08T05:02:10;17.70;99.90
67890;DHT22;54685;52.082;5.426;2023-07-08T05:04:36;17.70;99.90
67890;DHT22;54685;52.082;5.426;2023-07-08T05:07:03;17.80;99.90
67890;DHT22;54685;52.082;5.426;2023-07-08T05:09:30;17.90;99.90
67890;DHT22;54685;52.082;5.426;2023-07-08T05:11:58;17.90;99.90
67890;DHT22;54685;52.082;5.426;2023-07-08T05:14:25;17.90;99.90
67890;DHT22;54685;52.082;5.426;2023-07-08T05:16:51;17.90;99.90
67890;DHT22;54685;52.082;5.426;2023-07-08T05:19:18;18.00;99.90
67890;DHT22;54685;52.082;5.426;2023-07-08T05:21:48;18.00;99.90
67890;DHT22;54685;52.082;5.426;2023-07-08T05:24:15;18.10;99.90
67890;DHT22;54685;52.082;5.426;2023-07-08T05:26:42;18.20;99.90
67890;DHT22;54685;52.082;5.426;2023-07-08T05:29:08;18.30;99.90
67890;DHT22;54685;52.082;5.426;2023-07-08T05:31:35;18.30;99.30
67890;DHT22;54685;52.082;5.426;2023-07-08T05:34:05;18.40;99.10
67890;DHT22;54685;52.082;5.426;2023-07-08T05:36:32;18.40;99.30
67890;DHT22;54685;52.082;5.426;2023-07-08T05:38:58;18.50;98.70
67890;DHT22;54685;52.082;5.426;2023-07-08T05:41:25;18.50;99.10
67890;DHT22;54685;52.082;5.426;2023-07-08T05:43:52;18.60;98.70
67890;DHT22;54685;52.082;5.426;2023-07-08T05:46:19;18.70;97.40
67890;DHT22;54685;52.082;5.426;2023-07-08T05:48:46;18.80;97.00
67890;DHT22;54685;52.082;5.426;2023-07-08T05:51:13;18.90;96.70
67890;DHT22;54685;52.082;5.426;2023-07-08T05:53:40;18.90;96.40
67890;DHT22;54685;52.082;5.426;2023-07-08T05:56:06;18.90;97.30
67890;DHT22;54685;52.082;5.426;2023-07-08T05:58:33;19.10;95.50
67890;DHT22;54685;52.082;5.426;2023-07-08T06:01:00;19.10;95.70
67890;DHT22;54685;52.082;5.426;2023-07-08T06:03:28;19.20;95.30
67890;DHT22;54685;52.082;5.426;2023-07-08T06:05:55;19.30;94.60
67890;DHT22;54685;52.082;5.426;2023-07-08T06:08:21;19.30;95.20
67890;DHT22;54685;52.082;5.426;2023-07-08T06:10:49;19.40;94.60
67890;DHT22;54685;52.082;5.426;2023-07-08T06:13:16;19.50;93.80
67890;DHT22;54685;52.082;5.426;2023-07-08T06:15:43;19.50;93.10
67890;DHT22;54685;52.082;5.426;2023-07-08T06:18:10;19.60;92.20
67890;DHT22;54685;52.082;5.426;2023-07-08T06:20:37;19.70;92.30
67890;DHT22;54685;52.082;5.426;2023-07-08T06:23:04;19.80;92.40
67890;DHT22;54685;52.082;5.426;2023-07-08T06:25:31;19.80;92.10
67890;DHT22;54685;52.082;5.426;2023-07-08T06:27:59;19.90;92.00
67890;DHT22;54685;52.082;5.426;2023-07-08T06:30:25;20.00;91.90
67890;DHT22;54685;52.082;5.426;2023-07-08T06:32:52;20.00;91.40
67890;DHT22;54685;52.082;5.426;2023-07-08T06:35:19;20.10;90.80
67890;DHT22;54685;52.082;5.426;2023-07-08T06:37:46;20.20;91.20
67890;DHT22;54685;52.082;5.426;2023-07-08T06:40:13;20.30;91.50
67890;DHT22;54685;52.082;5.426;2023-07-08T06:42:40;20.30;91.80
67890;DHT22;54685;52.082;5.426;2023-07-08T06:45:18;20.40;91.20
67890;DHT22;54685;52.082;5.426;2023-07-08T06:47:45;20.50;91.30
67890;DHT22;54685;52.082;5.426;2023-07-08T06:50:12;20.50;91.50
67890;DHT22;54685;52.082;5.426;2023-07-08T06:52:39;20.60;90.80
67890;DHT22;54685;52.082;5.426;2023-07-08T06:55:08;20.70;89.70
67890;DHT22;54685;52.082;5.426;2023-07-08T06:57:36;20.80;89.40
67890;DHT22;54685;52.082;5.426;2023-07-08T07:00:06;20.80;87.80
67890;DHT22;54685;52.082;5.426;2023-07-08T07:02:36;20.90;88.60
67890;DHT22;54685;52.082;5.426;2023-07-08T07:05:03;21.00;87.80
67890;DHT22;54685;52.082;5.426;2023-07-08T07:07:31;21.10;86.90
67890;DHT22;54685;52.082;5.426;2023-07-08T07:09:58;21.10;88.00
67890;DHT22;54685;52.082;5.426;2023-07-08T07:12:25;21.20;86.30
67890;DHT22;54685;52.082;5.426;2023-07-08T07:14:52;21.30;84.90
67890;DHT22;54685;52.082;5.426;2023-07-08T07:17:24;21.40;84.20
67890;DHT22;54685;52.082;5.426;2023-07-08T07:19:54;21.50;82.30
67890;DHT22;54685;52.082;5.426;2023-07-08T07:22:21;21.60;82.90
67890;DHT22;54685;52.082;5.426;2023-07-08T07:24:48;21.70;82.60
67890;DHT22;54685;52.082;5.426;2023-07-08T07:27:15;21.70;83.00
67890;DHT22;54685;52.082;5.426;2023-07-08T07:29:45;21.70;82.90
67890;DHT22;54685;52.082;5.426;2023-07-08T07:32:14;21.80;81.40
67890;DHT22;54685;52.082;5.426;2023-07-08T07:34:47;21.90;82.00
67890;DHT22;54685;52.082;5.426;2023-07-08T07:37:15;22.00;79.40
67890;DHT22;54685;52.082;5.426;2023-07-08T07:39:42;22.00;80.40
67890;DHT22;54685;52.082;5.426;2023-07-08T07:42:09;22.20;77.60
67890;DHT22;54685;52.082;5.426;2023-07-08T07:44:37;22.20;78.20
67890;DHT22;54685;52.082;5.426;2023-07-08T07:47:07;22.30;78.50
67890;DHT22;54685;52.082;5.426;2023-07-08T07:49:35;22.40;76.90
67890;DHT22;54685;52.082;5.426;2023-07-08T07:52:02;22.50;77.50
67890;DHT22;54685;52.082;5.426;2023-07-08T07:54:30;22.60;77.70
67890;DHT22;54685;52.082;5.426;2023-07-08T07:56:57;22.60;78.30
67890;DHT22;54685;52.082;5.426;2023-07-08T07:59:23;22.70;77.50
67890;DHT22;54685;52.082;5.426;2023-07-08T08:01:50;22.80;76.20
67890;DHT22;54685;52.082;5.426;2023-07-08T08:04:17;22.90;74.60
67890;DHT22;54685;52.082;5.426;2023-07-08T08:06:44;23.00;73.30
67890;DHT22;54685;52.082;5.426;2023-07-08T08:09:14;23.10;73.90
67890;DHT22;54685;52.082;5.426;2023-07-08T08:11:41;23.20;72.70
67890;DHT22;54685;52.082;5.426;2023-07-08T08:14:08;23.40;71.80
67890;DHT22;54685;52.082;5.426;2023-07-08T08:16:35;23.50;71.10
67890;DHT22;54685;52.082;5.426;2023-07-08T08:19:02;23.60;70.20
67890;DHT22;54685;52.082;5.426;2023-07-08T08:21:31;23.70;70.50
67890;DHT22;54685;52.082;5.426;2023-07-08T08:23:57;23.80;71.00
67890;DHT22;54685;52.082;5.426;2023-07-08T08:26:27;24.00;69.80
67890;DHT22;54685;52.082;5.426;2023-07-08T08:28:55;24.10;69.50
67890;DHT22;54685;52.082;5.426;2023-07-08T08:31:22;24.20;68.60
67890;DHT22;54685;52.082;5.426;2023-07-08T08:33:51;24.30;68.80
67890;DHT22;54685;52.082;5.426;2023-07-08T08:36:18;24.40;68.70
67890;DHT22;54685;52.082;5.426;2023-07-08T08:38:45;24.50;68.90
67890;DHT22;54685;52.082;5.426;2023-07-08T08:41:13;24.70;68.20
67890;DHT22;54685;52.082;5.426;2023-07-08T08:43:41;24.80;67.70
67890;DHT22;54685;52.082;5.426;2023-07-08T08:46:16;25.00;65.90
67890;DHT22;54685;52.082;5.426;2023-07-08T08:51:25;25.40;63.20
67890;DHT22;54685;52.082;5.426;2023-07-08T08:53:56;25.50;64.30
67890;DHT22;54685;52.082;5.426;2023-07-08T08:56:35;25.70;64.20
67890;DHT22;54685;52.082;5.426;2023-07-08T09:01:41;26.00;59.00
67890;DHT22;54685;52.082;5.426;2023-07-08T09:04:12;26.20;61.20
67890;DHT22;54685;52.082;5.426;2023-07-08T09:06:42;26.40;59.50
67890;DHT22;54685;52.082;5.426;2023-07-08T09:09:30;26.50;58.70
67890;DHT22;54685;52.082;5.426;2023-07-08T09:12:05;26.70;54.00
67890;DHT22;54685;52.082;5.426;2023-07-08T09:14:35;26.90;56.50
67890;DHT22;54685;52.082;5.426;2023-07-08T09:17:31;27.10;57.20
67890;DHT22;54685;52.082;5.426;2023-07-08T09:25:33;27.70;54.10
67890;DHT22;54685;52.082;5.426;2023-07-08T09:28:01;27.80;52.80
67890;DHT22;54685;52.082;5.426;2023-07-08T09:30:29;28.00;53.90
67890;DHT22;54685;52.082;5.426;2023-07-08T09:32:58;28.20;54.30
67890;DHT22;54685;52.082;5.426;2023-07-08T09:35:41;28.50;53.70
67890;DHT22;54685;52.082;5.426;2023-07-08T09:38:14;28.70;52.20
67890;DHT22;54685;52.082;5.426;2023-07-08T09:40:47;28.90;53.20
67890;DHT22;54685;52.082;5.426;2023-07-08T09:45:45;29.40;51.10
67890;DHT22;54685;52.082;5.426;2023-07-08T09:48:24;29.60;50.70
67890;DHT22;54685;52.082;5.426;2023-07-08T09:50:53;29.70;49.00
67890;DHT22;54685;52.082;5.426;2023-07-08T09:53:20;29.80;47.90
67890;DHT22;54685;52.082;5.426;2023-07-08T09:55:49;30.00;47.80
67890;DHT22;54685;52.082;5.426;2023-07-08T09:58:34;30.20;48.20
67890;DHT22;54685;52.082;5.426;2023-07-08T10:01:13;30.40;46.80
67890;DHT22;54685;52.082;5.426;2023-07-08T10:03:42;30.60;46.70
67890;DHT22;54685;52.082;5.426;2023-07-08T10:06:26;30.70;46.60
67890;DHT22;54685;52.082;5.426;2023-07-08T10:09:04;30.90;45.60
67890;DHT22;54685;52.082;5.426;2023-07-08T10:11:44;31.00;43.10
67890;DHT22;54685;52.082;5.426;2023-07-08T10:14:38;31.10;45.80
67890;DHT22;54685;52.082;5.426;2023-07-08T10:17:15;31.20;44.50
67890;DHT22;54685;52.082;5.426;2023-07-08T10:19:42;31.30;45.40
67890;DHT22;54685;52.082;5.426;2023-07-08T10:30:36;31.80;42.40
67890;DHT22;54685;52.082;5.426;2023-07-08T10:33:31;31.90;43.60
67890;DHT22;54685;52.082;5.426;2023-07-08T10:47:57;32.20;43.10
67890;DHT22;54685;52.082;5.426;2023-07-08T10:53:46;32.40;41.40
67890;DHT22;54685;52.082;5.426;2023-07-08T10:56:41;32.50;40.60
67890;DHT22;54685;52.082;5.426;2023-07-08T11:07:55;32.90;41.70
67890;DHT22;54685;52.082;5.426;2023-07-08T11:10:30;32.90;38.40
67890;DHT22;54685;52.082;5.426;2023-07-08T11:13:06;32.90;40.50
67890;DHT22;54685;52.082;5.426;2023-07-08T11:19:19;33.10;40.20
67890;DHT22;54685;52.082;5.426;2023-07-08T11:21:44;33.10;38.60
67890;DHT22;54685;52.082;5.426;2023-07-08T11:27:08;33.10;37.60
67890;DHT22;54685;52.082;5.426;2023-07-08T11:29:44;33.20;38.50
67890;DHT22;54685;52.082;5.426;2023-07-08T11:32:15;33.30;37.90
67890;DHT22;54685;52.082;5.426;2023-07-08T11:34:45;33.20;37.70
67890;DHT22;54685;52.082;5.426;2023-07-08T11:37:13;33.20;38.00
67890;DHT22;54685;52.082;5.426;2023-07-08T11:39:45;33.10;36.10
67890;DHT22;54685;52.082;5.426;2023-07-08T11:42:23;33.10;37.30
67890;DHT22;54685;52.082;5.426;2023-07-08T11:44:54;33.00;37.20
67890;DHT22;54685;52.082;5.426;2023-07-08T11:47:40;33.00;38.80
67890;DHT22;54685;52.082;5.426;2023-07-08T11:50:29;33.10;38.80
67890;DHT22;54685;52.082;5.426;2023-07-08T11:53:07;33.10;38.20
67890;DHT22;54685;52.082;5.426;2023-07-08T11:55:48;33.10;37.00
67890;DHT22;54685;52.082;5.426;2023-07-08T11:58:27;33.10;38.20
67890;DHT22;54685;52.082;5.426;2023-07-08T12:01:01;33.10;40.20
67890;DHT22;54685;52.082;5.426;2023-07-08T12:03:37;33.20;37.90
67890;DHT22;54685;52.082;5.426;2023-07-08T12:08:56;33.00;37.10
67890;DHT22;54685;52.082;5.426;2023-07-08T12:11:43;33.00;37.30
67890;DHT22;54685;52.082;5.426;2023-07-08T12:14:10;33.00;38.10
67890;DHT22;54685;52.082;5.426;2023-07-08T12:16:37;33.10;39.40
67890;DHT22;54685;52.082;5.426;2023-07-08T12:19:05;33.00;37.80
67890;DHT22;54685;52.082;5.426;2023-07-08T12:21:36;33.10;39.00
67890;DHT22;54685;52.082;5.426;2023-07-08T12:24:04;33.20;39.20
67890;DHT22;54685;52.082;5.426;2023-07-08T12:26:35;33.30;37.40
67890;DHT22;54685;52.082;5.426;2023-07-08T12:29:02;33.50;36.50
67890;DHT22;54685;52.082;5.426;2023-07-08T12:31:29;33.50;34.60
67890;DHT22;54685;52.082;5.426;2023-07-08T12:33:59;33.50;33.30
67890;DHT22;54685;52.082;5.426;2023-07-08T12:36:28;33.60;35.30
67890;DHT22;54685;52.082;5.426;2023-07-08T12:38:57;33.70;36.20
67890;DHT22;54685;52.082;5.426;2023-07-08T12:41:29;33.70;35.10
67890;DHT22;54685;52.082;5.426;2023-07-08T12:43:56;33.80;35.40
67890;DHT22;54685;52.082;5.426;2023-07-08T12:46:23;33.70;35.70
67890;DHT22;54685;52.082;5.426;2023-07-08T12:48:52;33.80;34.90
67890;DHT22;54685;52.082;5.426;2023-07-08T12:51:22;33.80;34.50
67890;DHT22;54685;52.082;5.426;2023-07-08T12:53:50;33.80;33.00
67890;DHT22;54685;52.082;5.426;2023-07-08T12:56:19;33.80;34.30
67890;DHT22;54685;52.082;5.426;2023-07-08T12:58:50;33.80;33.30
67890;DHT22;54685;52.082;5.426;2023-07-08T13:01:28;33.70;32.90
67890;DHT22;54685;52.082;5.426;2023-07-08T13:04:00;33.70;33.70
67890;DHT22;54685;52.082;5.426;2023-07-08T13:06:32;33.70;33.00
67890;DHT22;54685;52.082;5.426;2023-07-08T13:12:19;33.80;33.60
67890;DHT22;54685;52.082;5.426;2023-07-08T13:14:55;33.80;34.30
67890;DHT22;54685;52.082;5.426;2023-07-08T13:17:25;33.80;34.80
67890;DHT22;54685;52.082;5.426;2023-07-08T13:19:52;33.80;34.40
67890;DHT22;54685;52.082;5.426;2023-07-08T13:22:20;33.80;35.60
67890;DHT22;54685;52.082;5.426;2023-07-08T13:24:48;33.80;33.50
67890;DHT22;54685;52.082;5.426;2023-07-08T13:27:22;33.80;34.50
67890;DHT22;54685;52.082;5.426;2023-07-08T13:29:54;33.80;33.30
67890;DHT22;54685;52.082;5.426;2023-07-08T13:32:29;33.80;32.20
67890;DHT22;54685;52.082;5.426;2023-07-08T13:34:57;33.80;33.70
67890;DHT22;54685;52.082;5.426;2023-07-08T13:37:24;33.80;34.30
67890;DHT22;54685;52.082;5.426;2023-07-08T13:39:53;33.80;34.40
67890;DHT22;54685;52.082;5.426;2023-07-08T13:42:21;33.80;32.60
67890;DHT22;54685;52.082;5.426;2023-07-08T13:44:49;33.80;33.30
67890;DHT22;54685;52.082;5.426;2023-07-08T13:47:30;33.80;33.50
67890;DHT22;54685;52.082;5.426;2023-07-08T13:50:19;33.80;33.80
67890;DHT22;54685;52.082;5.426;2023-07-08T13:52:54;33.90;34.20
67890;DHT22;54685;52.082;5.426;2023-07-08T13:55:22;33.90;35.30
67890;DHT22;54685;52.082;5.426;2023-07-08T13:58:01;33.90;35.00
67890;DHT22;54685;52.082;5.426;2023-07-08T14:00:31;33.90;32.60
67890;DHT22;54685;52.082;5.426;2023-07-08T14:02:58;33.80;33.10
67890;DHT22;54685;52.082;5.426;2023-07-08T14:05:25;33.90;33.40
67890;DHT22;54685;52.082;5.426;2023-07-08T14:07:52;33.90;33.60
67890;DHT22;54685;52.082;5.426;2023-07-08T14:10:19;33.90;33.00
67890;DHT22;54685;52.082;5.426;2023-07-08T14:12:46;33.90;33.10
67890;DHT22;54685;52.082;5.426;2023-07-08T14:15:13;33.90;33.50
67890;DHT22;54685;52.082;5.426;2023-07-08T14:17:40;33.90;34.20
67890;DHT22;54685;52.082;5.426;2023-07-08T14:20:15;34.00;34.60
67890;DHT22;54685;52.082;5.426;2023-07-08T14:22:43;34.00;33.70
67890;DHT22;54685;52.082;5.426;2023-07-08T14:25:10;34.00;34.00
67890;DHT22;54685;52.082;5.426;2023-07-08T14:27:38;34.00;33.80
67890;DHT22;54685;52.082;5.426;2023-07-08T14:30:05;33.90;34.00
67890;DHT22;54685;52.082;5.426;2023-07-08T14:32:35;33.90;33.70
67890;DHT22;54685;52.082;5.426;2023-07-08T14:35:23;33.90;34.60
67890;DHT22;54685;52.082;5.426;2023-07-08T14:37:51;33.90;34.40
67890;DHT22;54685;52.082;5.426;2023-07-08T14:40:34;34.00;35.00
67890;DHT22;54685;52.082;5.426;2023-07-08T14:43:03;33.90;33.60
67890;DHT22;54685;52.082;5.426;2023-07-08T14:45:37;33.90;33.80
67890;DHT22;54685;52.082;5.426;2023-07-08T14:48:09;33.90;34.60
67890;DHT22;54685;52.082;5.426;2023-07-08T14:50:37;33.80;33.20
67890;DHT22;54685;52.082;5.426;2023-07-08T14:53:05;33.80;34.60
67890;DHT22;54685;52.082;5.426;2023-07-08T14:55:32;33.80;34.70
67890;DHT22;54685;52.082;5.426;2023-07-08T14:58:00;33.80;35.10
67890;DHT22;54685;52.082;5.426;2023-07-08T15:00:27;33.80;34.40
67890;DHT22;54685;52.082;5.426;2023-07-08T15:02:54;33.80;35.20
67890;DHT22;54685;52.082;5.426;2023-07-08T15:05:27;33.70;35.60
67890;DHT22;54685;52.082;5.426;2023-07-08T15:07:56;33.70;35.30
67890;DHT22;54685;52.082;5.426;2023-07-08T15:10:26;33.50;36.70
67890;DHT22;54685;52.082;5.426;2023-07-08T15:12:54;33.50;36.60
67890;DHT22;54685;52.082;5.426;2023-07-08T15:15:31;33.40;35.90
67890;DHT22;54685;52.082;5.426;2023-07-08T15:18:00;33.30;36.00
67890;DHT22;54685;52.082;5.426;2023-07-08T15:20:29;33.30;36.40
67890;DHT22;54685;52.082;5.426;2023-07-08T15:22:55;33.20;36.60
67890;DHT22;54685;52.082;5.426;2023-07-08T15:25:23;33.20;37.70
67890;DHT22;54685;52.082;5.426;2023-07-08T15:27:52;33.20;37.10
67890;DHT22;54685;52.082;5.426;2023-07-08T15:30:26;33.20;37.90
67890;DHT22;54685;52.082;5.426;2023-07-08T15:32:53;33.20;37.00
67890;DHT22;54685;52.082;5.426;2023-07-08T15:35:24;33.30;37.50
67890;DHT22;54685;52.082;5.426;2023-07-08T15:37:52;33.20;37.20
67890;DHT22;54685;52.082;5.426;2023-07-08T15:40:20;33.20;37.20
67890;DHT22;54685;52.082;5.426;2023-07-08T15:42:51;33.20;36.60
67890;DHT22;54685;52.082;5.426;2023-07-08T15:45:28;33.20;36.50
67890;DHT22;54685;52.082;5.426;2023-07-08T15:47:55;33.10;36.50
67890;DHT22;54685;52.082;5.426;2023-07-08T15:50:24;33.10;36.50
67890;DHT22;54685;52.082;5.426;2023-07-08T15:52:52;33.00;36.80
67890;DHT22;54685;52.082;5.426;2023-07-08T15:55:25;33.00;37.40
67890;DHT22;54685;52.082;5.426;2023-07-08T15:57:57;32.90;36.20
67890;DHT22;54685;52.082;5.426;2023-07-08T16:00:28;32.80;36.70
67890;DHT22;54685;52.082;5.426;2023-07-08T16:02:57;32.80;38.30
67890;DHT22;54685;52.082;5.426;2023-07-08T16:05:26;32.70;39.60
67890;DHT22;54685;52.082;5.426;2023-07-08T16:07:54;32.60;37.70
67890;DHT22;54685;52.082;5.426;2023-07-08T16:10:23;32.60;38.60
67890;DHT22;54685;52.082;5.426;2023-07-08T16:12:52;32.50;38.40
67890;DHT22;54685;52.082;5.426;2023-07-08T16:15:43;32.40;38.10
67890;DHT22;54685;52.082;5.426;2023-07-08T16:18:11;32.30;40.20
67890;DHT22;54685;52.082;5.426;2023-07-08T16:20:41;32.20;40.40
67890;DHT22;54685;52.082;5.426;2023-07-08T16:23:07;32.10;40.50
67890;DHT22;54685;52.082;5.426;2023-07-08T16:25:39;32.10;41.40
67890;DHT22;54685;52.082;5.426;2023-07-08T16:28:27;32.00;41.40
67890;DHT22;54685;52.082;5.426;2023-07-08T16:30:55;31.90;41.30
67890;DHT22;54685;52.082;5.426;2023-07-08T16:33:23;31.90;42.10
67890;DHT22;54685;52.082;5.426;2023-07-08T16:35:50;31.90;42.20
67890;DHT22;54685;52.082;5.426;2023-07-08T16:38:17;31.90;44.40
67890;DHT22;54685;52.082;5.426;2023-07-08T16:40:44;31.90;41.60
67890;DHT22;54685;52.082;5.426;2023-07-08T16:43:23;31.90;42.00
67890;DHT22;54685;52.082;5.426;2023-07-08T16:45:51;31.80;42.70
67890;DHT22;54685;52.082;5.426;2023-07-08T16:48:21;31.80;42.00
67890;DHT22;54685;52.082;5.426;2023-07-08T16:50:50;31.80;41.40
67890;DHT22;54685;52.082;5.426;2023-07-08T16:53:35;31.80;42.20